Time;durP1;ratioP1;P1;durP2;ratioP2;P2;SDS_P1;SDS_P2;PMS_P1;PMS_P2;Temp;Humidity;BMP_temperature;BMP_pressure;BME280_temperature;BME280_humidity;BME280_pressure;Samples;Min_cycle;Max_cycle;Signal;HPM_P1;HPM_P2
2023/09/26 00:01:27;;;;;;;2.50;2.13;;;12.60;99.90;;;;;;5072951;28;20462;-74
2023/09/26 00:03:53;;;;;;;2.83;2.53;;;12.60;99.90;;;;;;5072767;28;20173;-74
2023/09/26 00:06:23;;;;;;;2.80;2.60;;;12.50;99.90;;;;;;5072465;28;20432;-74
2023/09/26 00:08:52;;;;;;;2.87;2.50;;;12.40;99.90;;;;;;5072798;28;20532;-74
2023/09/26 00:11:17;;;;;;;4.57;3.70;;;12.50;99.90;;;;;;5072724;28;21021;-73
2023/09/26 00:13:43;;;;;;;3.17;2.50;;;12.40;99.90;;;;;;5072711;28;20424;-73
2023/09/26 00:16:10;;;;;;;3.10;2.80;;;12.40;99.90;;;;;;5072358;28;20459;-74
2023/09/26 00:18:36;;;;;;;3.70;3.40;;;12.40;99.90;;;;;;5072754;28;20401;-74
2023/09/26 00:21:02;;;;;;;2.60;2.40;;;12.30;99.90;;;;;;5072389;28;20821;-74
2023/09/26 00:23:28;;;;;;;3.93;3.40;;;12.30;99.90;;;;;;5081026;28;20420;-73
2023/09/26 00:25:53;;;;;;;4.10;2.50;;;12.20;99.90;;;;;;5057243;28;20213;-73
2023/09/26 00:28:19;;;;;;;2.70;2.20;;;12.20;99.90;;;;;;5072531;28;20552;-73
2023/09/26 00:30:44;;;;;;;2.70;2.50;;;12.20;99.90;;;;;;5072343;28;20174;-74
2023/09/26 00:33:10;;;;;;;2.67;2.13;;;12.30;99.90;;;;;;5072403;28;20170;-74
2023/09/26 00:35:35;;;;;;;4.90;3.10;;;12.30;99.90;;;;;;5072016;28;20684;-73
2023/09/26 00:38:01;;;;;;;3.40;3.10;;;12.30;99.90;;;;;;5054396;28;20166;-74
2023/09/26 00:40:26;;;;;;;5.57;3.47;;;12.20;99.90;;;;;;5072277;28;20166;-73
2023/09/26 00:42:52;;;;;;;2.43;2.23;;;12.20;99.90;;;;;;5072203;28;20700;-73
2023/09/26 00:45:18;;;;;;;3.30;3.00;;;12.20;99.90;;;;;;5071839;28;20256;-72
2023/09/26 00:47:44;;;;;;;3.17;2.73;;;12.20;99.90;;;;;;5071364;28;20163;-73
2023/09/26 00:50:13;;;;;;;3.10;2.80;;;12.20;99.90;;;;;;5072080;28;20166;-74
2023/09/26 00:52:51;;;;;;;3.30;2.67;;;12.20;99.90;;;;;;5071989;28;20447;-74
2023/09/26 00:55:18;;;;;;;3.43;2.80;;;12.10;99.90;;;;;;5053836;28;20493;-73
2023/09/26 00:57:45;;;;;;;3.37;3.00;;;12.10;99.90;;;;;;5072058;28;20813;-74
2023/09/26 01:00:15;;;;;;;3.20;2.90;;;12.10;99.90;;;;;;5077475;28;20446;-74
2023/09/26 01:02:41;;;;;;;4.07;3.33;;;12.10;99.90;;;;;;5053555;28;20420;-73
2023/09/26 01:05:08;;;;;;;3.93;3.53;;;12.00;99.90;;;;;;5083858;28;20529;-74
2023/09/26 01:07:35;;;;;;;3.57;3.27;;;12.00;99.90;;;;;;5076025;28;20405;-73
2023/09/26 01:10:01;;;;;;;3.30;3.10;;;12.00;99.90;;;;;;5071941;28;20449;-73
2023/09/26 01:12:30;;;;;;;6.93;3.87;;;12.00;99.90;;;;;;5071693;28;20452;-74
2023/09/26 01:14:55;;;;;;;5.40;4.50;;;11.90;99.90;;;;;;5053730;28;20481;-73
2023/09/26 01:17:21;;;;;;;4.80;3.90;;;11.90;99.90;;;;;;5053529;28;20404;-73
2023/09/26 01:19:47;;;;;;;7.70;4.90;;;11.90;99.90;;;;;;5071839;28;20696;-73
2023/09/26 01:22:16;;;;;;;5.70;4.40;;;11.80;99.90;;;;;;5054795;28;20170;-73
2023/09/26 01:24:43;;;;;;;9.73;4.37;;;11.80;99.90;;;;;;5077011;28;20204;-74
2023/09/26 01:27:09;;;;;;;5.03;4.07;;;11.80;99.90;;;;;;5073598;28;20487;-73
2023/09/26 01:29:34;;;;;;;6.97;4.27;;;11.80;99.90;;;;;;5055545;28;20498;-73
2023/09/26 01:32:00;;;;;;;5.30;3.60;;;11.80;99.90;;;;;;5090865;28;20455;-74
2023/09/26 01:34:26;;;;;;;5.03;4.10;;;11.70;99.90;;;;;;5091653;28;20216;-74
2023/09/26 01:36:51;;;;;;;4.23;3.83;;;11.70;99.90;;;;;;5091607;28;20170;-74
2023/09/26 01:39:17;;;;;;;5.87;3.80;;;11.70;99.90;;;;;;5091750;28;20257;-73
2023/09/26 01:41:42;;;;;;;6.67;4.40;;;11.70;99.90;;;;;;5091613;28;20176;-74
2023/09/26 01:44:08;;;;;;;9.17;4.20;;;11.60;99.90;;;;;;5091593;28;20249;-73
2023/09/26 01:46:34;;;;;;;6.07;3.70;;;11.60;99.90;;;;;;5091533;28;20315;-73
2023/09/26 01:48:59;;;;;;;4.03;3.50;;;11.60;99.90;;;;;;5073517;28;20435;-73
2023/09/26 01:51:25;;;;;;;4.40;3.87;;;11.50;99.90;;;;;;5091539;28;20189;-73
2023/09/26 01:53:51;;;;;;;3.73;2.90;;;11.50;99.90;;;;;;5091431;28;20193;-73
2023/09/26 01:56:16;;;;;;;4.37;3.30;;;11.50;99.90;;;;;;5091383;28;20188;-73
2023/09/26 01:58:42;;;;;;;4.30;3.80;;;11.40;99.90;;;;;;5091921;28;20199;-73
2023/09/26 02:01:08;;;;;;;3.00;2.60;;;11.40;99.90;;;;;;5095556;28;20215;-73
2023/09/26 02:03:33;;;;;;;4.30;2.93;;;11.40;99.90;;;;;;5095361;28;20162;-73
2023/09/26 02:05:59;;;;;;;3.10;2.80;;;11.30;99.90;;;;;;5092498;28;20434;-73
2023/09/26 02:08:25;;;;;;;7.47;4.30;;;11.30;99.90;;;;;;5075189;28;20228;-74
2023/09/26 02:10:50;;;;;;;4.47;3.60;;;11.30;99.90;;;;;;5075059;28;20509;-73
2023/09/26 02:13:16;;;;;;;4.00;3.60;;;11.30;99.90;;;;;;5075047;28;20486;-73
2023/09/26 02:15:41;;;;;;;5.87;4.87;;;11.30;99.90;;;;;;5074579;28;20193;-73
2023/09/26 02:18:07;;;;;;;4.43;4.03;;;11.20;99.90;;;;;;5077907;28;20166;-74
2023/09/26 02:20:33;;;;;;;5.97;4.17;;;11.10;99.90;;;;;;5074207;28;20162;-73
2023/09/26 02:22:59;;;;;;;4.33;3.93;;;11.10;99.90;;;;;;5077854;28;20257;-73
2023/09/26 02:25:25;;;;;;;6.73;4.17;;;11.10;99.90;;;;;;5088570;28;20194;-73
2023/09/26 02:27:51;;;;;;;6.17;5.43;;;11.00;99.90;;;;;;5094987;28;20176;-73
2023/09/26 02:30:21;;;;;;;8.20;6.87;;;11.00;99.90;;;;;;5090063;28;20413;-73
2023/09/26 02:32:47;;;;;;;5.20;4.67;;;11.00;99.90;;;;;;5056598;28;20201;-74
2023/09/26 02:35:14;;;;;;;4.97;4.03;;;11.00;99.90;;;;;;5074469;28;20478;-74
2023/09/26 02:37:40;;;;;;;3.97;3.47;;;11.00;99.90;;;;;;5074551;28;20162;-74
2023/09/26 02:40:09;;;;;;;5.43;3.70;;;11.10;99.90;;;;;;5079628;28;20422;-73
2023/09/26 02:42:36;;;;;;;4.70;3.27;;;11.10;99.90;;;;;;5079198;28;20170;-74
2023/09/26 02:45:02;;;;;;;4.50;3.20;;;11.10;99.90;;;;;;5074327;28;20503;-74
2023/09/26 02:47:28;;;;;;;3.30;3.00;;;11.10;99.90;;;;;;5074250;28;20887;-74
2023/09/26 02:49:53;;;;;;;3.73;2.87;;;11.10;99.90;;;;;;5056436;28;20416;-74
2023/09/26 02:52:19;;;;;;;6.67;4.67;;;11.00;99.90;;;;;;5074193;28;20194;-74
2023/09/26 02:54:44;;;;;;;5.00;4.33;;;11.00;99.90;;;;;;5073968;28;20661;-74
2023/09/26 02:57:10;;;;;;;5.63;4.17;;;11.00;99.90;;;;;;5074081;28;20580;-74
2023/09/26 02:59:36;;;;;;;5.37;3.70;;;10.90;99.90;;;;;;5074205;28;20253;-74
2023/09/26 03:02:02;;;;;;;4.43;3.90;;;10.90;99.90;;;;;;5074145;28;20633;-74
2023/09/26 03:04:28;;;;;;;3.90;3.30;;;11.00;99.90;;;;;;5056034;28;20660;-74
2023/09/26 03:06:53;;;;;;;5.80;4.57;;;11.00;99.90;;;;;;5073932;28;20414;-74
2023/09/26 03:09:19;;;;;;;5.33;4.63;;;11.00;99.90;;;;;;5073979;28;20170;-73
2023/09/26 03:11:44;;;;;;;5.80;3.87;;;11.00;99.90;;;;;;5072839;28;20224;-74
2023/09/26 03:14:10;;;;;;;4.50;4.10;;;11.00;99.90;;;;;;5076811;28;20175;-74
2023/09/26 03:16:36;;;;;;;6.37;5.20;;;11.00;99.90;;;;;;5058754;28;20223;-72
2023/09/26 03:19:02;;;;;;;7.40;4.90;;;11.00;99.90;;;;;;5075877;28;20166;-73
2023/09/26 03:21:27;;;;;;;5.87;4.17;;;11.00;99.90;;;;;;5093838;28;20913;-74
2023/09/26 03:23:53;;;;;;;6.87;5.00;;;11.00;99.90;;;;;;5076083;28;20177;-73
2023/09/26 03:26:18;;;;;;;6.00;5.47;;;11.00;99.90;;;;;;5055439;28;20558;-73
2023/09/26 03:28:44;;;;;;;12.10;6.67;;;11.00;99.90;;;;;;5073585;28;20170;-74
2023/09/26 03:31:10;;;;;;;6.73;5.57;;;11.10;99.90;;;;;;5073559;28;20690;-74
2023/09/26 03:33:35;;;;;;;5.07;4.57;;;11.00;99.90;;;;;;5073515;28;20238;-73
2023/09/26 03:36:03;;;;;;;9.07;5.87;;;11.00;99.90;;;;;;5073188;28;20182;-73
2023/09/26 03:38:29;;;;;;;6.80;5.10;;;11.00;99.90;;;;;;5073336;28;20748;-73
2023/09/26 03:41:02;;;;;;;8.43;5.70;;;11.00;99.90;;;;;;5073427;28;20479;-73
2023/09/26 03:43:28;;;;;;;5.40;4.90;;;11.00;99.90;;;;;;5073375;28;20553;-73
2023/09/26 03:46:00;;;;;;;7.80;5.17;;;10.90;99.90;;;;;;5073030;28;20420;-74
2023/09/26 03:48:26;;;;;;;8.90;5.00;;;10.90;99.90;;;;;;5073347;28;20400;-74
2023/09/26 03:50:52;;;;;;;7.10;5.47;;;10.90;99.90;;;;;;5073164;28;20760;-74
2023/09/26 03:53:17;;;;;;;8.23;5.60;;;10.90;99.90;;;;;;5073006;28;20420;-73
2023/09/26 03:55:43;;;;;;;7.67;6.13;;;10.90;99.90;;;;;;5072639;28;20190;-74
2023/09/26 03:58:08;;;;;;;9.50;5.90;;;10.80;99.90;;;;;;5073066;28;20571;-74
2023/09/26 04:00:34;;;;;;;7.40;6.17;;;10.70;99.90;;;;;;5055111;28;20710;-74
2023/09/26 04:03:01;;;;;;;9.10;6.50;;;10.60;99.90;;;;;;5073051;28;20531;-74
2023/09/26 04:05:26;;;;;;;8.47;7.10;;;10.50;99.90;;;;;;5054880;28;20328;-74
2023/09/26 04:07:52;;;;;;;10.83;7.47;;;10.50;99.90;;;;;;5071656;28;20891;-74
2023/09/26 04:10:18;;;;;;;7.53;6.83;;;10.50;99.90;;;;;;5072873;28;20182;-74
2023/09/26 04:12:43;;;;;;;6.43;5.83;;;10.40;99.90;;;;;;5072666;28;20456;-74
2023/09/26 04:15:09;;;;;;;7.50;6.70;;;10.40;99.90;;;;;;5072737;28;20190;-74
2023/09/26 04:17:35;;;;;;;11.50;8.47;;;10.40;99.90;;;;;;5072674;28;20166;-74
2023/09/26 04:20:12;;;;;;;6.90;5.63;;;10.40;99.90;;;;;;5072749;28;20844;-73
2023/09/26 04:22:37;;;;;;;9.17;6.53;;;10.50;99.90;;;;;;5072387;28;20399;-73
2023/09/26 04:25:03;;;;;;;8.53;7.20;;;10.60;99.90;;;;;;5072507;28;20433;-73
2023/09/26 04:27:29;;;;;;;7.67;6.97;;;10.60;99.90;;;;;;5072443;28;20170;-73
2023/09/26 04:29:54;;;;;;;8.87;7.87;;;10.60;99.90;;;;;;5072423;28;20450;-73
2023/09/26 04:32:20;;;;;;;8.80;7.20;;;10.70;99.90;;;;;;5072283;28;20186;-76
2023/09/26 04:34:45;;;;;;;8.00;6.20;;;10.70;99.90;;;;;;5072256;28;20185;-73
2023/09/26 04:37:11;;;;;;;8.27;7.43;;;10.70;99.90;;;;;;5071976;28;20172;-73
2023/09/26 04:39:37;;;;;;;11.87;6.80;;;10.70;99.90;;;;;;5072235;28;20204;-74
2023/09/26 04:42:03;;;;;;;8.93;6.97;;;10.70;99.90;;;;;;5072300;28;20162;-74
2023/09/26 04:44:28;;;;;;;10.90;6.47;;;10.70;99.90;;;;;;5072106;28;20424;-74
2023/09/26 04:46:54;;;;;;;8.27;7.00;;;10.70;99.90;;;;;;5071910;28;20668;-74
2023/09/26 04:49:19;;;;;;;9.17;6.30;;;10.80;99.90;;;;;;5054234;28;20212;-75
2023/09/26 04:51:45;;;;;;;13.87;9.53;;;10.70;99.90;;;;;;5071959;28;20216;-73
2023/09/26 04:54:10;;;;;;;9.10;7.27;;;10.70;99.90;;;;;;5071816;28;20182;-73
2023/09/26 04:56:36;;;;;;;5.77;5.27;;;10.60;99.90;;;;;;5072090;28;20586;-74
2023/09/26 04:59:01;;;;;;;8.80;6.00;;;10.60;99.90;;;;;;5072076;28;20560;-73
2023/09/26 05:01:27;;;;;;;8.93;5.23;;;10.60;99.90;;;;;;5071995;28;20178;-74
2023/09/26 05:03:53;;;;;;;5.47;4.97;;;10.60;99.90;;;;;;5053895;28;20189;-74
2023/09/26 05:06:18;;;;;;;5.70;5.10;;;10.60;99.90;;;;;;5071717;28;20193;-74
2023/09/26 05:08:44;;;;;;;8.93;5.03;;;10.60;99.90;;;;;;5053954;28;20178;-74
2023/09/26 05:11:14;;;;;;;5.37;4.80;;;10.60;99.90;;;;;;5053890;28;20649;-74
2023/09/26 05:13:40;;;;;;;7.33;5.43;;;10.60;99.90;;;;;;5071867;28;20684;-74
2023/09/26 05:16:08;;;;;;;8.27;6.17;;;10.50;99.90;;;;;;5071450;28;20462;-73
2023/09/26 05:18:34;;;;;;;12.87;6.73;;;10.50;99.90;;;;;;5071823;28;20170;-73
2023/09/26 05:21:05;;;;;;;8.20;6.70;;;10.40;99.90;;;;;;5071664;28;20491;-74
2023/09/26 05:23:31;;;;;;;6.27;5.70;;;10.40;99.90;;;;;;5071757;28;20245;-73
2023/09/26 05:26:05;;;;;;;5.93;5.33;;;10.30;99.90;;;;;;5053643;28;20508;-74
2023/09/26 05:28:31;;;;;;;7.23;5.80;;;10.30;99.90;;;;;;5071616;28;20158;-76
2023/09/26 05:30:57;;;;;;;6.30;5.37;;;10.20;99.90;;;;;;5071723;28;20400;-74
2023/09/26 05:33:22;;;;;;;8.47;4.87;;;10.20;99.90;;;;;;5053544;28;20170;-75
2023/09/26 05:35:48;;;;;;;5.00;4.50;;;10.20;99.90;;;;;;5075229;28;20189;-74
2023/09/26 05:38:13;;;;;;;6.03;4.73;;;10.20;99.90;;;;;;5075811;28;20533;-74
2023/09/26 05:40:39;;;;;;;6.70;4.57;;;10.30;99.90;;;;;;5075707;28;20627;-74
2023/09/26 05:43:04;;;;;;;6.20;3.83;;;10.40;99.90;;;;;;5075738;28;20166;-74
2023/09/26 05:45:30;;;;;;;6.13;4.87;;;10.40;99.90;;;;;;5057326;28;20204;-74
2023/09/26 05:47:55;;;;;;;6.40;4.57;;;10.40;99.90;;;;;;5075499;28;20225;-74
2023/09/26 05:50:21;;;;;;;6.27;4.70;;;10.50;99.90;;;;;;5075482;28;20170;-75
2023/09/26 05:52:46;;;;;;;8.00;4.73;;;10.60;99.90;;;;;;5075135;28;20208;-73
2023/09/26 05:55:12;;;;;;;5.37;4.60;;;10.60;99.90;;;;;;5075308;28;20656;-74
2023/09/26 05:57:38;;;;;;;5.07;4.57;;;10.70;99.90;;;;;;5057260;28;20656;-74
2023/09/26 06:00:05;;;;;;;6.30;4.97;;;10.80;99.90;;;;;;5075310;28;20162;-75
2023/09/26 06:02:30;;;;;;;6.03;5.03;;;10.80;99.90;;;;;;5075103;28;20169;-74
2023/09/26 06:04:56;;;;;;;5.83;5.33;;;10.90;99.90;;;;;;5075096;28;20416;-74
2023/09/26 06:07:21;;;;;;;8.00;5.70;;;11.00;99.90;;;;;;5074975;28;20257;-74
2023/09/26 06:09:48;;;;;;;7.00;5.30;;;11.10;99.90;;;;;;5075052;28;20170;-74
2023/09/26 06:12:13;;;;;;;8.70;6.07;;;11.10;99.90;;;;;;5074955;28;20185;-74
2023/09/26 06:14:39;;;;;;;8.80;6.30;;;11.10;99.90;;;;;;5074964;28;20819;-74
2023/09/26 06:17:04;;;;;;;10.17;6.37;;;11.10;99.90;;;;;;5074785;28;20233;-73
2023/09/26 06:19:30;;;;;;;6.43;5.90;;;11.20;99.90;;;;;;5074752;28;20237;-74
2023/09/26 06:21:55;;;;;;;7.33;5.80;;;11.20;99.90;;;;;;5074767;28;20537;-74
2023/09/26 06:24:21;;;;;;;7.87;6.33;;;11.20;99.90;;;;;;5056625;28;20662;-74
2023/09/26 06:26:46;;;;;;;6.13;5.53;;;11.30;99.90;;;;;;5074574;28;20170;-73
2023/09/26 06:29:12;;;;;;;10.30;6.53;;;11.50;99.90;;;;;;5056713;28;20208;-74
2023/09/26 06:31:40;;;;;;;7.80;5.17;;;11.60;99.90;;;;;;5074683;28;20196;-74
2023/09/26 06:34:06;;;;;;;7.43;6.20;;;11.60;99.90;;;;;;5074498;28;20190;-73
2023/09/26 06:36:31;;;;;;;12.77;6.40;;;11.70;99.90;;;;;;5074557;28;20439;-74
2023/09/26 06:38:58;;;;;;;8.47;7.20;;;11.80;99.90;;;;;;5074723;28;20211;-74
2023/09/26 06:41:24;;;;;;;15.43;7.67;;;11.90;99.90;;;;;;5073337;28;20178;-73
2023/09/26 06:43:49;;;;;;;7.27;6.37;;;12.00;99.90;;;;;;5074504;28;20798;-74
2023/09/26 06:46:15;;;;;;;9.57;7.23;;;12.00;99.90;;;;;;5072797;28;20428;-74
2023/09/26 06:48:43;;;;;;;7.73;5.80;;;12.00;99.90;;;;;;5074406;28;20170;-74
2023/09/26 06:51:09;;;;;;;6.83;6.00;;;12.10;99.90;;;;;;5074367;28;20173;-74
2023/09/26 06:53:35;;;;;;;7.27;6.17;;;12.20;99.90;;;;;;5074296;28;20416;-74
2023/09/26 06:56:02;;;;;;;8.00;6.50;;;12.20;99.90;;;;;;5074027;28;20292;-74
2023/09/26 06:58:28;;;;;;;11.73;6.80;;;12.40;99.90;;;;;;5074660;28;20883;-73
2023/09/26 07:00:54;;;;;;;8.70;7.70;;;12.50;99.90;;;;;;5076743;28;20447;-73
2023/09/26 07:03:20;;;;;;;9.27;8.37;;;12.60;99.90;;;;;;5077414;28;20412;-75
2023/09/26 07:05:45;;;;;;;10.93;8.20;;;12.60;99.90;;;;;;5075416;28;20224;-74
2023/09/26 07:08:12;;;;;;;10.73;8.20;;;12.70;99.90;;;;;;5074826;28;20529;-74
2023/09/26 07:10:38;;;;;;;11.50;8.07;;;12.80;99.90;;;;;;5058015;28;20186;-74
2023/09/26 07:13:04;;;;;;;11.67;8.37;;;13.00;99.90;;;;;;5091191;28;20484;-74
2023/09/26 07:15:31;;;;;;;8.43;7.53;;;13.10;99.90;;;;;;5056773;28;20436;-75
2023/09/26 07:17:58;;;;;;;8.20;6.60;;;13.30;99.90;;;;;;5074377;28;20408;-74
2023/09/26 07:20:25;;;;;;;8.30;7.50;;;13.50;99.90;;;;;;5089578;28;20480;-74
2023/09/26 07:22:50;;;;;;;12.03;7.20;;;13.70;99.90;;;;;;5077496;28;20423;-73
2023/09/26 07:25:16;;;;;;;7.97;5.93;;;13.90;99.90;;;;;;5092808;28;20523;-75
2023/09/26 07:27:41;;;;;;;9.27;6.53;;;13.90;99.90;;;;;;5057549;28;20197;-75
2023/09/26 07:30:08;;;;;;;8.10;6.30;;;13.90;99.90;;;;;;5078364;28;20250;-73
2023/09/26 07:32:34;;;;;;;7.77;6.40;;;14.00;99.90;;;;;;5073772;28;20216;-75
2023/09/26 07:35:00;;;;;;;8.30;6.40;;;14.10;99.90;;;;;;5069055;28;20428;-74
2023/09/26 07:37:27;;;;;;;6.60;6.00;;;14.30;99.90;;;;;;5077602;28;20511;-73
2023/09/26 07:39:52;;;;;;;8.63;5.60;;;14.40;99.90;;;;;;5080756;28;20858;-74
2023/09/26 07:42:19;;;;;;;8.00;6.53;;;14.80;99.90;;;;;;5056319;28;20456;-74
2023/09/26 07:44:44;;;;;;;7.07;5.93;;;15.30;99.90;;;;;;5073699;28;20194;-75
2023/09/26 07:47:10;;;;;;;12.10;6.63;;;15.70;99.90;;;;;;5072996;28;21032;-73
2023/09/26 07:49:35;;;;;;;9.93;7.13;;;15.80;99.90;;;;;;5073105;28;20181;-73
2023/09/26 07:52:01;;;;;;;7.87;6.63;;;15.80;99.90;;;;;;5072926;28;20242;-73
2023/09/26 07:54:26;;;;;;;7.00;5.17;;;15.90;99.90;;;;;;5072522;28;20213;-72
2023/09/26 07:56:52;;;;;;;6.43;5.83;;;15.90;99.90;;;;;;5072324;28;20181;-73
2023/09/26 07:59:18;;;;;;;7.23;6.20;;;16.00;99.90;;;;;;5065787;28;20812;-73
2023/09/26 08:01:43;;;;;;;7.20;5.03;;;16.10;99.90;;;;;;5078432;28;20580;-73
2023/09/26 08:04:09;;;;;;;8.63;5.70;;;16.30;99.90;;;;;;5072824;28;20556;-73
2023/09/26 08:06:35;;;;;;;16.63;4.67;;;16.40;99.90;;;;;;5073381;28;20166;-75
2023/09/26 08:09:00;;;;;;;7.40;4.90;;;16.70;99.90;;;;;;5073289;28;20201;-74
2023/09/26 08:11:27;;;;;;;4.50;3.83;;;16.90;99.90;;;;;;5073214;28;20711;-73
2023/09/26 08:13:54;;;;;;;5.40;4.63;;;17.50;99.90;;;;;;5073823;28;20185;-72
2023/09/26 08:16:20;;;;;;;4.70;4.20;;;18.80;99.90;;;;;;5073671;28;20435;-75
2023/09/26 08:18:45;;;;;;;5.33;4.83;;;20.70;99.90;;;;;;5081103;28;20460;-74
2023/09/26 08:21:11;;;;;;;6.17;3.87;;;22.30;99.90;;;;;;5089259;28;20413;-74
2023/09/26 08:23:37;;;;;;;5.87;4.70;;;23.80;99.90;;;;;;5058967;28;20202;-73
2023/09/26 08:26:07;;;;;;;4.10;3.80;;;25.60;99.90;;;;;;5076630;28;20493;-70
2023/09/26 08:28:34;;;;;;;8.47;3.90;;;27.80;93.30;;;;;;5054190;28;20179;-69
2023/09/26 08:31:07;;;;;;;5.67;4.40;;;30.50;67.00;;;;;;5081812;28;20777;-70
2023/09/26 08:33:34;;;;;;;4.37;3.80;;;32.30;51.30;;;;;;5086800;28;20431;-71
2023/09/26 08:35:59;;;;;;;4.63;4.23;;;33.40;45.10;;;;;;5057620;28;20435;-71
2023/09/26 08:38:25;;;;;;;6.80;5.57;;;34.20;42.50;;;;;;5054471;28;20766;-70
2023/09/26 08:40:51;;;;;;;4.33;3.50;;;35.30;41.20;;;;;;5072175;28;20536;-71
2023/09/26 08:43:25;;;;;;;4.70;4.30;;;37.00;39.70;;;;;;5072321;28;20650;-71
2023/09/26 08:45:52;;;;;;;3.73;3.37;;;37.80;35.90;;;;;;5071873;28;20439;-71
2023/09/26 08:48:18;;;;;;;5.53;5.03;;;38.80;34.10;;;;;;5071907;28;20922;-71
2023/09/26 08:50:44;;;;;;;4.00;3.27;;;39.30;31.80;;;;;;5071876;28;21052;-71
2023/09/26 08:53:09;;;;;;;4.47;4.13;;;40.30;32.40;;;;;;5071916;28;20491;-71
2023/09/26 08:55:38;;;;;;;3.23;3.03;;;40.80;30.00;;;;;;5066506;28;20250;-72
2023/09/26 08:58:04;;;;;;;6.93;4.07;;;41.60;29.90;;;;;;5090462;28;20232;-71
2023/09/26 09:00:30;;;;;;;4.87;4.20;;;42.20;29.10;;;;;;5092249;28;20403;-73
2023/09/26 09:02:55;;;;;;;5.40;4.90;;;42.30;28.20;;;;;;5083085;28;20418;-74
2023/09/26 09:05:22;;;;;;;4.40;4.00;;;42.30;27.10;;;;;;5071437;28;20191;-74
2023/09/26 09:07:48;;;;;;;3.23;2.93;;;42.00;27.00;;;;;;5071762;28;20166;-73
2023/09/26 09:10:16;;;;;;;6.20;3.90;;;42.40;27.30;;;;;;5071127;28;20910;-73
2023/09/26 09:12:44;;;;;;;3.77;3.47;;;42.30;26.90;;;;;;5071632;28;20501;-73
2023/09/26 09:15:15;;;;;;;4.83;4.43;;;42.60;26.40;;;;;;5071694;28;20447;-73
2023/09/26 09:17:42;;;;;;;4.97;4.57;;;43.30;26.20;;;;;;5071608;28;20496;-73
2023/09/26 09:20:09;;;;;;;3.47;3.17;;;43.40;25.80;;;;;;5071736;28;20397;-73
2023/09/26 09:22:34;;;;;;;3.90;3.60;;;44.00;26.20;;;;;;5053672;28;20410;-73
2023/09/26 09:25:01;;;;;;;3.90;3.53;;;43.80;25.20;;;;;;5071559;28;20471;-73
2023/09/26 09:27:32;;;;;;;4.70;4.30;;;44.30;25.40;;;;;;5071458;28;20257;-72
2023/09/26 09:30:16;;;;;;;5.80;5.07;;;44.80;25.20;;;;;;5079059;28;20428;-73
2023/09/26 09:32:42;;;;;;;4.93;4.43;;;45.40;24.80;;;;;;5071671;28;20450;-73
2023/09/26 09:35:13;;;;;;;4.37;4.00;;;45.90;24.00;;;;;;5088720;28;20941;-73
2023/09/26 09:37:41;;;;;;;3.90;3.60;;;45.90;23.50;;;;;;5087106;28;20379;-73
2023/09/26 09:40:08;;;;;;;4.17;3.77;;;46.00;23.50;;;;;;5071614;28;20885;-73
2023/09/26 09:42:34;;;;;;;5.80;3.63;;;45.70;23.20;;;;;;5071383;28;20412;-73
2023/09/26 09:44:59;;;;;;;5.23;3.50;;;46.20;23.60;;;;;;5079232;28;20394;-73
2023/09/26 09:47:29;;;;;;;4.60;3.47;;;47.10;23.60;;;;;;5081053;28;20585;-73
2023/09/26 09:49:59;;;;;;;6.20;3.67;;;48.20;23.50;;;;;;5071585;28;20552;-73
2023/09/26 09:52:28;;;;;;;3.50;3.30;;;48.80;22.40;;;;;;5071333;28;20500;-73
2023/09/26 09:54:57;;;;;;;3.10;2.90;;;49.00;21.80;;;;;;5071281;28;20505;-73
2023/09/26 09:57:24;;;;;;;3.63;3.33;;;49.20;21.60;;;;;;5053228;28;20415;-75
2023/09/26 09:59:52;;;;;;;3.70;3.40;;;49.30;21.00;;;;;;5071656;28;20911;-74
2023/09/26 10:02:17;;;;;;;3.50;3.20;;;49.30;20.70;;;;;;5060105;28;20447;-73
2023/09/26 10:04:47;;;;;;;3.40;3.00;;;50.30;21.60;;;;;;5079476;28;20440;-72
2023/09/26 10:07:17;;;;;;;3.67;3.47;;;51.10;20.90;;;;;;5071239;28;20202;-73
2023/09/26 10:09:44;;;;;;;4.73;2.63;;;51.10;19.70;;;;;;5071253;28;20423;-74
2023/09/26 10:12:12;;;;;;;6.17;3.57;;;51.50;20.80;;;;;;5071179;28;20525;-74
2023/09/26 10:14:37;;;;;;;4.17;3.07;;;52.40;19.90;;;;;;5070551;28;20914;-72
2023/09/26 10:17:05;;;;;;;5.10;3.53;;;51.70;19.00;;;;;;5071096;28;20425;-74
2023/09/26 10:19:33;;;;;;;4.50;3.90;;;51.50;19.50;;;;;;5071158;28;20638;-74
2023/09/26 10:22:19;;;;;;;3.60;3.30;;;51.30;18.70;;;;;;5082346;28;20480;-74
2023/09/26 10:24:53;;;;;;;3.80;3.50;;;51.90;19.50;;;;;;5087945;28;20443;-75
2023/09/26 10:27:35;;;;;;;3.73;3.50;;;52.60;19.20;;;;;;5094855;28;20941;-72
2023/09/26 10:30:01;;;;;;;2.97;2.70;;;52.70;18.60;;;;;;5074683;28;20387;-74
2023/09/26 10:32:35;;;;;;;3.53;3.30;;;52.70;18.30;;;;;;5074638;28;20769;-74
2023/09/26 10:35:15;;;;;;;3.83;3.63;;;53.10;18.70;;;;;;5074706;28;20194;-73
2023/09/26 10:37:44;;;;;;;4.00;3.60;;;53.90;18.60;;;;;;5074272;28;20377;-74
2023/09/26 10:40:12;;;;;;;3.20;3.00;;;53.40;17.60;;;;;;5074615;28;20375;-73
2023/09/26 10:42:42;;;;;;;3.70;3.50;;;53.80;18.40;;;;;;5074402;28;20391;-74
2023/09/26 10:45:09;;;;;;;3.77;3.47;;;54.20;17.80;;;;;;5056462;28;20936;-74
2023/09/26 10:47:37;;;;;;;3.37;3.07;;;54.30;17.60;;;;;;5074283;28;20387;-73
2023/09/26 10:50:07;;;;;;;3.67;3.47;;;53.80;17.10;;;;;;5067983;28;20427;-74
2023/09/26 10:52:34;;;;;;;4.07;3.67;;;54.00;17.90;;;;;;5074180;28;20507;-74
2023/09/26 10:54:59;;;;;;;3.83;3.63;;;54.30;17.90;;;;;;5073846;28;20455;-74
2023/09/26 10:57:25;;;;;;;3.70;3.40;;;54.40;17.20;;;;;;5082306;28;20415;-73
2023/09/26 10:59:51;;;;;;;3.80;3.50;;;54.60;17.40;;;;;;5088762;28;20230;-74
2023/09/26 11:02:17;;;;;;;3.57;3.33;;;54.30;16.80;;;;;;5094381;28;20536;-72
2023/09/26 11:04:43;;;;;;;3.87;3.60;;;54.00;17.20;;;;;;5059073;28;20202;-74
2023/09/26 11:07:09;;;;;;;3.20;3.00;;;52.80;16.60;;;;;;5073955;28;20416;-73
2023/09/26 11:09:40;;;;;;;3.40;3.13;;;52.50;17.20;;;;;;5073951;28;20245;-74
2023/09/26 11:12:06;;;;;;;3.20;2.90;;;53.20;18.00;;;;;;5074017;28;20285;-74
2023/09/26 11:14:32;;;;;;;3.03;2.83;;;52.40;16.90;;;;;;5073734;28;20485;-73
2023/09/26 11:16:58;;;;;;;3.10;2.80;;;51.00;17.00;;;;;;5073576;28;20163;-74
2023/09/26 11:19:26;;;;;;;3.40;3.13;;;49.20;17.60;;;;;;5073748;28;20633;-73
2023/09/26 11:21:54;;;;;;;3.03;2.83;;;47.80;18.40;;;;;;5073960;28;20178;-73
2023/09/26 11:24:21;;;;;;;3.43;3.13;;;48.70;20.00;;;;;;5075930;28;20406;-73
2023/09/26 11:26:50;;;;;;;3.10;2.90;;;49.80;19.10;;;;;;5073208;28;20391;-73
2023/09/26 11:29:17;;;;;;;3.10;2.90;;;50.20;18.30;;;;;;5090097;28;20390;-74
2023/09/26 11:31:44;;;;;;;3.20;2.90;;;50.90;18.40;;;;;;5072917;28;20488;-74
2023/09/26 11:34:10;;;;;;;3.40;3.10;;;51.60;18.30;;;;;;5081626;28;20412;-74
2023/09/26 11:36:37;;;;;;;3.53;3.33;;;52.30;18.10;;;;;;5073334;28;20375;-73
2023/09/26 11:39:06;;;;;;;5.83;4.47;;;53.40;18.50;;;;;;5078907;28;20706;-74
2023/09/26 11:41:31;;;;;;;3.60;3.30;;;54.40;17.90;;;;;;5090233;28;20503;-74
2023/09/26 11:44:10;;;;;;;3.77;3.47;;;54.10;16.60;;;;;;5055535;28;20898;-73
2023/09/26 11:46:47;;;;;;;4.27;4.07;;;53.80;17.00;;;;;;5073300;28;20173;-74
2023/09/26 11:49:14;;;;;;;3.40;3.10;;;53.70;16.80;;;;;;5079664;28;20401;-74
2023/09/26 11:51:40;;;;;;;2.70;2.50;;;53.00;16.70;;;;;;5081573;28;20475;-74
2023/09/26 11:54:06;;;;;;;2.47;2.37;;;53.10;17.10;;;;;;5073014;28;20439;-73
2023/09/26 11:56:33;;;;;;;3.60;3.27;;;53.80;17.90;;;;;;5072881;28;20379;-73
2023/09/26 11:58:58;;;;;;;2.83;2.63;;;54.10;16.50;;;;;;5073019;28;20408;-74
2023/09/26 12:01:24;;;;;;;3.30;3.10;;;52.90;16.50;;;;;;5073074;28;20408;-74
2023/09/26 12:03:50;;;;;;;2.87;2.67;;;52.90;16.80;;;;;;5072931;28;20170;-74
2023/09/26 12:06:15;;;;;;;2.70;2.50;;;52.90;17.90;;;;;;5054555;28;20772;-73
2023/09/26 12:08:43;;;;;;;2.60;2.50;;;53.20;17.00;;;;;;5072956;28;20656;-74
2023/09/26 12:11:10;;;;;;;3.07;2.87;;;53.90;17.70;;;;;;5072927;28;20257;-74
2023/09/26 12:13:35;;;;;;;3.00;2.80;;;54.10;16.50;;;;;;5073832;28;20416;-73
2023/09/26 12:16:01;;;;;;;2.83;2.63;;;53.90;16.50;;;;;;5059240;28;20439;-74
2023/09/26 12:18:26;;;;;;;2.90;2.70;;;54.10;16.70;;;;;;5054867;28;20170;-74
2023/09/26 12:20:55;;;;;;;3.10;2.90;;;54.40;17.00;;;;;;5072748;28;20217;-74
2023/09/26 12:23:21;;;;;;;2.93;2.73;;;54.00;16.20;;;;;;5072653;28;20254;-74
2023/09/26 12:25:48;;;;;;;3.60;2.90;;;53.70;16.10;;;;;;5054284;28;20792;-74
2023/09/26 12:28:17;;;;;;;3.47;3.17;;;53.20;16.10;;;;;;5072441;28;20405;-73
2023/09/26 12:30:42;;;;;;;3.30;3.00;;;53.20;16.60;;;;;;5072213;28;20778;-74
2023/09/26 12:33:08;;;;;;;3.30;3.00;;;53.10;16.50;;;;;;5074358;28;20459;-73
2023/09/26 12:35:33;;;;;;;2.80;2.60;;;52.60;16.40;;;;;;5082415;28;20561;-74
2023/09/26 12:38:00;;;;;;;3.00;2.80;;;52.50;17.10;;;;;;5092223;28;20174;-73
2023/09/26 12:40:26;;;;;;;3.13;2.80;;;52.90;16.80;;;;;;5084777;28;20177;-73
2023/09/26 12:42:52;;;;;;;2.70;2.50;;;52.90;16.80;;;;;;5045872;28;21187;-73